createdAt,value
2022-11-28T00:01:18.817Z,54.22
2022-11-28T00:04:08.355Z,55.63
2022-11-28T00:07:03.319Z,55.13
2022-11-28T00:09:54.097Z,54.15
2022-11-28T00:12:43.139Z,51.30
2022-11-28T00:18:17.051Z,49.90
2022-11-28T00:21:07.184Z,45.70
2022-11-28T00:23:53.558Z,51.88
2022-11-28T00:26:46.647Z,50.03
2022-11-28T00:29:32.181Z,47.83
2022-11-28T00:32:24.729Z,50.67
2022-11-28T00:35:17.145Z,49.33
2022-11-28T00:38:04.018Z,48.25
2022-11-28T00:40:45.119Z,50.05
2022-11-28T00:43:23.185Z,47.97
2022-11-28T00:46:04.269Z,47.42
2022-11-28T00:48:47.541Z,50.75
2022-11-28T00:51:36.151Z,46.22
2022-11-28T00:54:23.041Z,48.88
2022-11-28T00:57:07.583Z,45.42
2022-11-28T00:59:54.344Z,50.03
2022-11-28T01:02:46.845Z,47.38
2022-11-28T01:05:33.280Z,49.92
2022-11-28T01:08:25.070Z,46.70
2022-11-28T01:11:08.314Z,48.00
2022-11-28T01:13:58.084Z,50.22
2022-11-28T01:16:37.269Z,49.47
2022-11-28T01:19:16.471Z,50.58
2022-11-28T01:22:03.130Z,51.80
2022-11-28T01:24:45.163Z,47.20
2022-11-28T01:27:23.264Z,46.88
2022-11-28T01:30:10.772Z,48.20
2022-11-28T01:32:56.135Z,44.13
2022-11-28T01:35:39.740Z,43.47
2022-11-28T01:38:26.468Z,46.53
2022-11-28T01:41:22.126Z,48.08
2022-11-28T01:44:41.332Z,50.67
2022-11-28T01:47:29.670Z,51.83
2022-11-28T01:50:09.323Z,49.85
2022-11-28T01:52:58.312Z,49.50
2022-11-28T01:55:45.483Z,48.95
2022-11-28T01:58:36.083Z,50.60
2022-11-28T02:01:17.005Z,48.63
2022-11-28T02:04:03.540Z,47.15
2022-11-28T02:06:53.146Z,50.55
2022-11-28T02:09:39.433Z,50.78
2022-11-28T02:12:43.186Z,46.15
2022-11-28T02:15:52.619Z,46.83
2022-11-28T02:19:16.632Z,46.92
2022-11-28T02:22:25.020Z,46.13
2022-11-28T02:25:38.849Z,46.22
2022-11-28T02:28:29.824Z,44.83
2022-11-28T02:31:59.579Z,49.75
2022-11-28T02:35:03.624Z,44.20
2022-11-28T02:38:00.103Z,41.55
2022-11-28T02:40:52.489Z,40.75
2022-11-28T02:44:07.177Z,47.83
2022-11-28T02:46:59.638Z,46.38
2022-11-28T02:49:44.139Z,47.88
2022-11-28T02:52:40.065Z,44.80
2022-11-28T02:55:21.838Z,43.25
2022-11-28T02:58:19.092Z,42.03
2022-11-28T03:01:03.473Z,45.95
2022-11-28T03:04:07.494Z,45.97
2022-11-28T03:07:05.135Z,45.95
2022-11-28T03:09:58.877Z,43.40
2022-11-28T03:12:59.336Z,45.03
2022-11-28T03:16:08.472Z,43.15
2022-11-28T03:19:15.732Z,40.13
2022-11-28T03:22:26.565Z,38.92
2022-11-28T03:25:32.247Z,40.60
2022-11-28T03:28:44.970Z,40.40
2022-11-28T03:31:30.524Z,44.72
2022-11-28T03:34:24.947Z,41.58
2022-11-28T03:37:20.115Z,41.13
2022-11-28T03:40:05.640Z,41.50
2022-11-28T03:42:53.139Z,45.97
2022-11-28T03:45:55.806Z,45.85
2022-11-28T03:48:50.634Z,45.72
2022-11-28T03:51:58.682Z,49.83
2022-11-28T03:54:47.663Z,50.20
2022-11-28T03:57:41.976Z,50.85
2022-11-28T04:00:28.721Z,51.42
2022-11-28T04:04:02.947Z,52.97
2022-11-28T04:07:24.769Z,54.20
2022-11-28T04:10:19.507Z,51.05
2022-11-28T04:13:49.735Z,51.35
2022-11-28T04:16:58.568Z,47.97
2022-11-28T04:20:04.912Z,49.92
2022-11-28T04:23:06.900Z,49.75
2022-11-28T04:25:45.572Z,47.47
2022-11-28T04:28:33.091Z,43.45
2022-11-28T04:31:12.343Z,44.05
2022-11-28T04:34:02.698Z,42.42
2022-11-28T04:36:45.322Z,41.72
2022-11-28T04:39:36.952Z,44.30
2022-11-28T04:42:38.218Z,41.10
2022-11-28T04:45:25.905Z,44.78
2022-11-28T04:48:13.168Z,44.58
2022-11-28T04:51:07.155Z,42.95
2022-11-28T04:53:53.295Z,45.05
2022-11-28T04:56:42.621Z,42.92
2022-11-28T04:59:26.368Z,44.47
2022-11-28T05:02:14.634Z,39.03
2022-11-28T05:05:00.980Z,43.47
2022-11-28T05:07:45.190Z,43.03
2022-11-28T05:13:22.141Z,38.63
2022-11-28T05:16:06.181Z,43.33
2022-11-28T05:18:48.341Z,42.80
2022-11-28T05:21:32.542Z,41.17
2022-11-28T05:24:18.927Z,41.40
2022-11-28T05:27:05.447Z,42.47
2022-11-28T05:29:52.981Z,40.30
2022-11-28T05:32:52.345Z,42.40
2022-11-28T05:35:37.169Z,40.17
2022-11-28T05:38:21.094Z,41.30
2022-11-28T05:41:04.342Z,38.60
2022-11-28T05:43:48.016Z,41.38
2022-11-28T05:46:40.310Z,40.20
2022-11-28T05:49:30.152Z,42.78
2022-11-28T05:52:16.325Z,42.15
2022-11-28T05:55:00.503Z,42.95
2022-11-28T05:57:59.253Z,39.78
2022-11-28T06:00:46.612Z,42.78
2022-11-28T06:03:38.119Z,40.58
2022-11-28T06:06:29.026Z,38.30
2022-11-28T06:09:10.265Z,42.08
2022-11-28T06:11:57.162Z,38.28
2022-11-28T06:14:33.694Z,41.22
2022-11-28T06:17:19.411Z,41.08
2022-11-28T06:20:09.069Z,42.03
2022-11-28T06:25:37.932Z,37.88
2022-11-28T06:28:20.998Z,43.67
2022-11-28T06:31:09.165Z,44.42
2022-11-28T06:34:02.597Z,40.92
2022-11-28T06:36:46.362Z,41.47
2022-11-28T06:39:32.958Z,38.95
2022-11-28T06:42:20.038Z,40.58
2022-11-28T06:45:17.788Z,38.22
2022-11-28T06:47:59.117Z,39.38
2022-11-28T06:50:40.106Z,37.05
2022-11-28T06:53:27.277Z,39.63
2022-11-28T06:56:29.092Z,42.95
2022-11-28T06:59:13.243Z,39.83
2022-11-28T07:04:42.978Z,37.38
2022-11-28T07:07:26.863Z,37.50
2022-11-28T07:12:49.693Z,39.38
2022-11-28T07:15:32.699Z,38.80
2022-11-28T07:18:13.514Z,41.33
2022-11-28T07:21:06.110Z,41.92
2022-11-28T07:23:53.532Z,39.88
2022-11-28T07:26:36.857Z,39.88
2022-11-28T07:29:24.598Z,41.60
2022-11-28T07:32:19.469Z,42.25
2022-11-28T07:35:12.257Z,44.47
2022-11-28T07:37:56.931Z,41.53
2022-11-28T07:40:48.084Z,42.33
2022-11-28T07:43:31.456Z,44.35
2022-11-28T07:46:23.171Z,41.97
2022-11-28T07:49:11.582Z,39.80
2022-11-28T07:51:58.608Z,40.30
2022-11-28T07:54:39.859Z,41.50
2022-11-28T08:00:21.163Z,41.38
2022-11-28T08:03:15.830Z,45.58
2022-11-28T08:06:07.272Z,45.42
2022-11-28T08:09:02.470Z,43.53
2022-11-28T08:11:46.147Z,44.42
2022-11-28T08:14:32.445Z,43.30
2022-11-28T08:17:24.047Z,43.88
2022-11-28T08:20:09.296Z,42.00
2022-11-28T08:22:58.367Z,40.08
2022-11-28T08:25:48.088Z,38.30
2022-11-28T08:28:38.875Z,39.30
2022-11-28T08:31:51.177Z,40.78
2022-11-28T08:34:35.125Z,38.78
2022-11-28T08:37:32.515Z,41.28
2022-11-28T08:40:15.278Z,39.47
2022-11-28T08:43:10.188Z,38.85
2022-11-28T08:46:00.187Z,43.42
2022-11-28T08:48:44.116Z,40.15
2022-11-28T08:51:30.862Z,38.92
2022-11-28T08:54:13.150Z,39.85
2022-11-28T08:56:57.934Z,38.70
2022-11-28T08:59:44.908Z,36.25
2022-11-28T09:02:31.061Z,36.40
2022-11-28T09:05:14.719Z,34.90
2022-11-28T09:08:11.595Z,35.78
2022-11-28T09:10:58.205Z,33.85
2022-11-28T09:13:45.611Z,35.33
2022-11-28T09:16:29.892Z,35.17
2022-11-28T09:19:16.770Z,33.88
2022-11-28T09:21:57.850Z,34.17
2022-11-28T09:27:11.426Z,29.85
2022-11-28T09:29:57.447Z,29.45
2022-11-28T09:32:42.241Z,26.85
2022-11-28T09:35:35.122Z,26.48
2022-11-28T09:38:13.378Z,28.00
2022-11-28T09:41:05.101Z,26.77
2022-11-28T09:43:55.016Z,25.75
2022-11-28T09:46:51.343Z,26.00
2022-11-28T09:50:12.494Z,23.63
2022-11-28T09:53:42.009Z,25.80
2022-11-28T09:56:31.113Z,24.35
2022-11-28T09:59:23.140Z,25.15
2022-11-28T10:02:46.032Z,26.50
2022-11-28T10:05:38.778Z,23.30
2022-11-28T10:09:26.058Z,24.25
2022-11-28T10:12:39.835Z,23.02
2022-11-28T10:15:42.466Z,26.73
2022-11-28T10:19:53.996Z,26.02
2022-11-28T10:22:41.646Z,25.08
2022-11-28T10:26:07.022Z,25.63
2022-11-28T10:28:53.845Z,28.00
2022-11-28T10:31:55.524Z,27.15
2022-11-28T10:34:54.250Z,27.27
2022-11-28T10:37:40.029Z,27.65
2022-11-28T10:40:48.233Z,29.60
2022-11-28T10:43:51.798Z,27.73
2022-11-28T10:47:05.364Z,27.60
2022-11-28T10:50:11.545Z,29.02
2022-11-28T10:53:23.573Z,26.73
2022-11-28T10:56:30.065Z,27.85
2022-11-28T10:59:43.426Z,28.50
2022-11-28T11:02:43.313Z,28.67
2022-11-28T11:05:28.816Z,32.25
2022-11-28T11:08:08.378Z,26.90
2022-11-28T11:11:01.790Z,26.90
2022-11-28T11:14:01.060Z,27.23
2022-11-28T11:19:42.477Z,26.00
2022-11-28T11:22:33.524Z,32.03
2022-11-28T11:25:22.932Z,29.70
2022-11-28T11:28:24.672Z,27.88
2022-11-28T11:31:34.759Z,25.85
2022-11-28T11:34:38.712Z,27.23
2022-11-28T11:38:03.665Z,23.65
2022-11-28T11:40:48.181Z,26.38
2022-11-28T11:44:07.093Z,27.40
2022-11-28T11:47:00.825Z,24.73
2022-11-28T11:49:46.219Z,25.33
2022-11-28T11:52:33.804Z,19.05
2022-11-28T11:55:48.041Z,24.30
2022-11-28T11:58:34.474Z,23.15
2022-11-28T12:01:18.191Z,26.75
2022-11-28T12:04:46.497Z,25.95
2022-11-28T12:07:56.171Z,23.83
2022-11-28T12:10:44.390Z,26.70
2022-11-28T12:13:38.190Z,25.73
2022-11-28T12:16:46.685Z,25.10
2022-11-28T12:19:55.284Z,26.30
2022-11-28T12:23:22.153Z,26.05
2022-11-28T12:26:21.648Z,24.02
2022-11-28T12:29:11.905Z,24.25
2022-11-28T12:32:44.910Z,27.13
2022-11-28T12:36:14.393Z,22.48
2022-11-28T12:39:11.724Z,25.25
2022-11-28T12:42:12.092Z,22.83
2022-11-28T12:45:39.935Z,24.90
2022-11-28T12:48:47.436Z,28.42
2022-11-28T12:51:49.131Z,26.73
2022-11-28T12:55:15.987Z,22.63
2022-11-28T13:01:57.820Z,24.63
2022-11-28T13:05:03.453Z,25.35
2022-11-28T13:08:00.201Z,25.83
2022-11-28T13:10:50.566Z,22.50
2022-11-28T13:13:52.767Z,26.25
2022-11-28T13:16:58.817Z,24.48
2022-11-28T13:19:53.576Z,24.70
2022-11-28T13:22:52.849Z,25.13
2022-11-28T13:26:10.220Z,26.15
2022-11-28T13:29:15.792Z,24.40
2022-11-28T13:32:03.539Z,27.10
2022-11-28T13:34:51.625Z,26.58
2022-11-28T13:42:09.726Z,27.10
2022-11-28T13:45:13.239Z,28.90
2022-11-28T13:48:05.742Z,26.10
2022-11-28T13:51:06.632Z,27.42
2022-11-28T13:54:21.359Z,27.90
2022-11-28T13:57:27.926Z,30.35
2022-11-28T14:00:29.259Z,29.85
2022-11-28T14:03:21.280Z,30.20
2022-11-28T14:06:10.293Z,30.92
2022-11-28T14:09:44.773Z,32.17
2022-11-28T14:13:03.322Z,30.85
2022-11-28T14:16:10.925Z,32.97
2022-11-28T14:19:31.221Z,31.25
2022-11-28T14:25:34.791Z,32.60
2022-11-28T14:28:40.423Z,31.08
2022-11-28T14:31:39.922Z,32.08
2022-11-28T14:34:47.289Z,33.65
2022-11-28T14:37:52.261Z,33.38
2022-11-28T14:40:56.386Z,32.60
2022-11-28T14:43:52.460Z,37.38
2022-11-28T14:46:37.094Z,57.03
2022-11-28T14:49:30.245Z,52.63
2022-11-28T14:55:42.719Z,52.80
2022-11-28T14:58:31.739Z,59.90
2022-11-28T15:01:26.790Z,56.33
2022-11-28T15:04:49.981Z,51.85
2022-11-28T15:08:13.516Z,52.65
2022-11-28T15:11:12.754Z,43.13
2022-11-28T15:14:11.488Z,42.92
2022-11-28T15:17:03.515Z,42.65
2022-11-28T15:20:17.593Z,41.35
2022-11-28T15:22:58.224Z,41.67
2022-11-28T15:25:37.466Z,39.00
2022-11-28T15:28:24.026Z,40.60
2022-11-28T15:31:06.170Z,39.42
2022-11-28T15:33:53.535Z,39.47
2022-11-28T15:36:35.646Z,45.13
2022-11-28T15:39:59.450Z,40.72
2022-11-28T15:42:49.155Z,45.78
2022-11-28T15:45:51.406Z,44.78
2022-11-28T15:49:07.458Z,44.60
2022-11-28T15:52:02.170Z,48.20
2022-11-28T15:54:52.252Z,47.53
2022-11-28T15:57:40.265Z,47.38
2022-11-28T16:00:24.422Z,52.30
2022-11-28T16:03:16.730Z,50.55
2022-11-28T16:06:08.039Z,52.05
2022-11-28T16:09:09.588Z,44.95
2022-11-28T16:11:56.027Z,41.08
2022-11-28T16:14:51.442Z,46.90
2022-11-28T16:17:44.719Z,44.03
2022-11-28T16:20:46.453Z,42.42
2022-11-28T16:23:44.451Z,42.70
2022-11-28T16:26:46.063Z,42.90
2022-11-28T16:29:36.476Z,41.13
2022-11-28T16:32:37.055Z,40.70
2022-11-28T16:35:44.773Z,43.20
2022-11-28T16:38:36.562Z,44.35
2022-11-28T16:41:28.723Z,47.63
2022-11-28T16:44:22.289Z,46.63
2022-11-28T16:47:11.839Z,44.97
2022-11-28T16:50:19.088Z,44.80
2022-11-28T16:53:06.681Z,43.92
2022-11-28T16:55:46.311Z,50.28
2022-11-28T16:58:33.660Z,50.30
2022-11-28T17:01:14.261Z,49.50
2022-11-28T17:03:59.158Z,54.65
2022-11-28T17:06:45.543Z,51.03
2022-11-28T17:09:37.871Z,49.03
2022-11-28T17:12:40.153Z,51.80
2022-11-28T17:15:28.090Z,49.53
2022-11-28T17:18:17.879Z,51.63
2022-11-28T17:21:00.546Z,52.90
2022-11-28T17:23:41.009Z,55.33
2022-11-28T17:26:21.634Z,51.63
2022-11-28T17:29:04.613Z,49.40
2022-11-28T17:32:07.507Z,45.72
2022-11-28T17:34:54.349Z,47.20
2022-11-28T17:37:41.412Z,44.42
2022-11-28T17:40:33.524Z,42.83
2022-11-28T17:43:21.620Z,43.95
2022-11-28T17:46:10.531Z,44.78
2022-11-28T17:48:59.267Z,43.67
2022-11-28T17:51:39.529Z,42.42
2022-11-28T17:54:24.892Z,42.75
2022-11-28T17:57:05.506Z,42.78
2022-11-28T17:59:47.845Z,44.50
2022-11-28T18:02:35.075Z,54.53
2022-11-28T18:05:30.050Z,54.88
2022-11-28T18:08:22.526Z,56.85
2022-11-28T18:11:17.704Z,57.13
2022-11-28T18:14:04.989Z,54.72
2022-11-28T18:16:54.814Z,54.20
2022-11-28T18:19:43.449Z,53.42
2022-11-28T18:22:22.974Z,52.75
2022-11-28T18:27:46.916Z,45.13
2022-11-28T18:30:36.884Z,50.85
2022-11-28T18:33:16.997Z,52.42
2022-11-28T18:36:07.849Z,53.75
2022-11-28T18:39:04.021Z,51.75
2022-11-28T18:41:40.294Z,54.78
2022-11-28T18:44:25.368Z,50.78
2022-11-28T18:47:15.031Z,52.97
2022-11-28T18:50:03.051Z,52.75
2022-11-28T18:52:49.248Z,51.03
2022-11-28T18:55:34.590Z,48.22
2022-11-28T18:58:22.526Z,50.30
2022-11-28T19:01:18.035Z,52.97
2022-11-28T19:04:05.092Z,55.22
2022-11-28T19:06:47.222Z,50.53
2022-11-28T19:09:23.251Z,53.88
2022-11-28T19:12:07.103Z,51.70
2022-11-28T19:14:45.991Z,54.20
2022-11-28T19:17:35.498Z,52.58
2022-11-28T19:20:27.771Z,49.60
2022-11-28T19:23:19.190Z,50.28
2022-11-28T19:26:29.290Z,47.22
2022-11-28T19:29:21.298Z,47.85
2022-11-28T19:31:58.845Z,52.50
2022-11-28T19:34:46.374Z,52.78
2022-11-28T19:37:32.872Z,50.13
2022-11-28T19:40:26.824Z,49.55
2022-11-28T19:43:18.781Z,49.72
2022-11-28T19:46:12.516Z,47.13
2022-11-28T19:49:02.685Z,40.20
2022-11-28T19:51:50.130Z,48.85
2022-11-28T19:54:32.132Z,46.30
2022-11-28T19:57:18.879Z,48.92
2022-11-28T20:00:06.164Z,49.38
2022-11-28T20:03:10.070Z,52.42
2022-11-28T20:05:58.731Z,48.05
2022-11-28T20:08:43.404Z,51.95
2022-11-28T20:11:27.056Z,48.33
2022-11-28T20:14:25.899Z,50.90
2022-11-28T20:17:13.014Z,50.47
2022-11-28T20:20:00.028Z,52.53
2022-11-28T20:22:40.981Z,52.58
2022-11-28T20:25:32.014Z,50.90
2022-11-28T20:28:19.396Z,51.03
2022-11-28T20:30:57.903Z,47.80
2022-11-28T20:33:40.869Z,50.72
2022-11-28T20:36:26.327Z,49.42
2022-11-28T20:39:00.231Z,42.60
2022-11-28T20:41:48.650Z,48.83
2022-11-28T20:44:32.030Z,46.95
2022-11-28T20:47:32.339Z,50.65
2022-11-28T20:50:13.683Z,49.83
2022-11-28T20:52:57.005Z,51.92
2022-11-28T20:55:46.608Z,47.72
2022-11-28T20:58:34.554Z,50.60
2022-11-28T21:01:13.190Z,59.35
2022-11-28T21:03:57.656Z,52.92
2022-11-28T21:06:45.050Z,52.75
2022-11-28T21:09:22.491Z,52.10
2022-11-28T21:12:04.036Z,53.55
2022-11-28T21:14:54.736Z,51.63
2022-11-28T21:17:49.010Z,55.47
2022-11-28T21:20:33.677Z,39.70
2022-11-28T21:23:15.148Z,50.80
2022-11-28T21:26:08.419Z,47.97
2022-11-28T21:28:57.039Z,49.28
2022-11-28T21:31:35.970Z,47.22
2022-11-28T21:34:26.867Z,44.03
2022-11-28T21:37:21.500Z,46.35
2022-11-28T21:40:02.509Z,46.55
2022-11-28T21:42:49.282Z,43.45
2022-11-28T21:45:33.763Z,44.28
2022-11-28T21:48:16.869Z,44.78
2022-11-28T21:51:09.046Z,42.08
2022-11-28T21:53:44.410Z,41.70
2022-11-28T21:56:31.366Z,41.97
2022-11-28T21:59:18.358Z,45.55
2022-11-28T22:02:11.874Z,39.90
2022-11-28T22:05:02.201Z,40.55
2022-11-28T22:07:50.407Z,39.97
2022-11-28T22:10:32.245Z,39.55
2022-11-28T22:13:21.201Z,35.60
2022-11-28T22:18:52.045Z,35.90
2022-11-28T22:24:40.352Z,38.95
2022-11-28T22:27:21.685Z,43.00
2022-11-28T22:30:02.030Z,39.03
2022-11-28T22:32:50.353Z,43.20
2022-11-28T22:35:46.022Z,40.53
2022-11-28T22:38:38.581Z,38.20
2022-11-28T22:41:30.585Z,37.05
2022-11-28T22:46:54.978Z,36.42
2022-11-28T22:49:42.795Z,38.97
2022-11-28T22:52:28.054Z,40.67
2022-11-28T22:55:09.317Z,39.78
2022-11-28T22:57:58.561Z,37.20
2022-11-28T23:00:42.668Z,35.55
2022-11-28T23:06:22.333Z,38.25
2022-11-28T23:09:13.707Z,35.20
2022-11-28T23:12:03.330Z,35.55
2022-11-28T23:14:48.520Z,35.25
2022-11-28T23:17:31.092Z,34.08
2022-11-28T23:20:15.032Z,33.25
2022-11-28T23:23:10.995Z,33.17
2022-11-28T23:25:45.897Z,35.35
2022-11-28T23:28:37.690Z,33.78
2022-11-28T23:31:43.208Z,32.50
2022-11-28T23:34:27.102Z,34.40
2022-11-28T23:37:22.871Z,36.75
2022-11-28T23:40:04.058Z,32.95
2022-11-28T23:42:53.580Z,32.60
2022-11-28T23:45:35.907Z,32.03
2022-11-28T23:48:25.461Z,30.95
2022-11-28T23:51:10.009Z,31.73
2022-11-28T23:53:52.004Z,29.95
